sensor_id;sensor_type;location;lat;lon;timestamp;temperature;humidity
40848;DHT22;26570;50.962;5.340;2022-12-07T01:01:53;5.70;99.90
40848;DHT22;26570;50.962;5.340;2022-12-07T01:04:39;5.80;99.90
40848;DHT22;26570;50.962;5.340;2022-12-07T01:07:27;5.70;99.90
40848;DHT22;26570;50.962;5.340;2022-12-07T01:10:14;5.70;99.90
40848;DHT22;26570;50.962;5.340;2022-12-07T01:13:23;5.70;99.90
40848;DHT22;26570;50.962;5.340;2022-12-07T01:16:11;5.80;99.90
40848;DHT22;26570;50.962;5.340;2022-12-07T01:18:59;5.90;99.90
40848;DHT22;26570;50.962;5.340;2022-12-07T01:21:45;6.00;99.90
40848;DHT22;26570;50.962;5.340;2022-12-07T01:24:31;5.40;99.90
40848;DHT22;26570;50.962;5.340;2022-12-07T01:27:18;5.80;99.90
40848;DHT22;26570;50.962;5.340;2022-12-07T01:30:06;5.90;99.90
40848;DHT22;26570;50.962;5.340;2022-12-07T01:32:52;5.90;99.90
40848;DHT22;26570;50.962;5.340;2022-12-07T01:35:39;6.00;99.90
40848;DHT22;26570;50.962;5.340;2022-12-07T01:38:25;6.10;99.90
40848;DHT22;26570;50.962;5.340;2022-12-07T01:41:15;6.10;99.90
40848;DHT22;26570;50.962;5.340;2022-12-07T01:44:21;6.00;99.90
40848;DHT22;26570;50.962;5.340;2022-12-07T01:47:07;6.10;99.90
40848;DHT22;26570;50.962;5.340;2022-12-07T01:49:54;6.10;99.90
40848;DHT22;26570;50.962;5.340;2022-12-07T01:52:42;6.20;99.90
40848;DHT22;26570;50.962;5.340;2022-12-07T01:55:31;6.00;99.90
40848;DHT22;26570;50.962;5.340;2022-12-07T01:58:17;6.00;99.90
40848;DHT22;26570;50.962;5.340;2022-12-07T02:01:03;5.90;99.90
40848;DHT22;26570;50.962;5.340;2022-12-07T02:03:50;5.80;99.90
40848;DHT22;26570;50.962;5.340;2022-12-07T02:06:37;5.80;99.90
40848;DHT22;26570;50.962;5.340;2022-12-07T02:09:23;5.80;99.90
40848;DHT22;26570;50.962;5.340;2022-12-07T02:12:09;5.80;99.90
40848;DHT22;26570;50.962;5.340;2022-12-07T02:14:55;6.00;99.90
40848;DHT22;26570;50.962;5.340;2022-12-07T02:18:00;6.00;99.90
40848;DHT22;26570;50.962;5.340;2022-12-07T02:21:11;5.80;99.90
40848;DHT22;26570;50.962;5.340;2022-12-07T02:30:18;5.60;99.90
40848;DHT22;26570;50.962;5.340;2022-12-07T02:34:04;5.70;99.90
40848;DHT22;26570;50.962;5.340;2022-12-07T02:36:34;5.70;99.90
40848;DHT22;26570;50.962;5.340;2022-12-07T02:39:34;5.70;99.90
40848;DHT22;26570;50.962;5.340;2022-12-07T02:42:39;5.70;99.90
40848;DHT22;26570;50.962;5.340;2022-12-07T02:45:26;5.70;99.90
40848;DHT22;26570;50.962;5.340;2022-12-07T02:48:16;5.70;99.90
40848;DHT22;26570;50.962;5.340;2022-12-07T02:51:05;5.80;99.90
40848;DHT22;26570;50.962;5.340;2022-12-07T02:53:51;5.90;99.90
40848;DHT22;26570;50.962;5.340;2022-12-07T03:00:13;6.10;99.90
40848;DHT22;26570;50.962;5.340;2022-12-07T03:03:06;6.10;99.90
40848;DHT22;26570;50.962;5.340;2022-12-07T03:09:20;5.90;99.90
40848;DHT22;26570;50.962;5.340;2022-12-07T03:19:04;5.90;99.90
40848;DHT22;26570;50.962;5.340;2022-12-07T03:22:21;5.80;99.90
40848;DHT22;26570;50.962;5.340;2022-12-07T03:25:22;5.80;99.90
40848;DHT22;26570;50.962;5.340;2022-12-07T03:28:10;6.00;99.90
40848;DHT22;26570;50.962;5.340;2022-12-07T03:32:02;5.30;99.90
40848;DHT22;26570;50.962;5.340;2022-12-07T03:38:36;6.20;99.90
40848;DHT22;26570;50.962;5.340;2022-12-07T03:41:57;5.80;99.90
40848;DHT22;26570;50.962;5.340;2022-12-07T03:44:57;5.80;99.90
40848;DHT22;26570;50.962;5.340;2022-12-07T03:48:05;5.80;99.90
40848;DHT22;26570;50.962;5.340;2022-12-07T03:51:51;5.60;99.90
40848;DHT22;26570;50.962;5.340;2022-12-07T03:55:31;5.90;99.90
40848;DHT22;26570;50.962;5.340;2022-12-07T03:58:54;5.90;99.90
40848;DHT22;26570;50.962;5.340;2022-12-07T04:01:51;5.90;99.90
40848;DHT22;26570;50.962;5.340;2022-12-07T04:05:14;5.80;99.90
40848;DHT22;26570;50.962;5.340;2022-12-07T04:08:15;5.80;99.90
40848;DHT22;26570;50.962;5.340;2022-12-07T04:11:27;5.60;99.90
40848;DHT22;26570;50.962;5.340;2022-12-07T04:14:18;5.60;99.90
40848;DHT22;26570;50.962;5.340;2022-12-07T04:17:33;5.60;99.90
40848;DHT22;26570;50.962;5.340;2022-12-07T04:20:41;5.50;99.90
40848;DHT22;26570;50.962;5.340;2022-12-07T04:23:41;5.50;99.90
40848;DHT22;26570;50.962;5.340;2022-12-07T04:27:05;5.40;99.90
40848;DHT22;26570;50.962;5.340;2022-12-07T04:30:21;5.30;99.90
40848;DHT22;26570;50.962;5.340;2022-12-07T04:33:12;5.20;99.90
40848;DHT22;26570;50.962;5.340;2022-12-07T04:36:30;5.20;99.90
40848;DHT22;26570;50.962;5.340;2022-12-07T04:39:59;5.10;99.90
40848;DHT22;26570;50.962;5.340;2022-12-07T04:42:56;5.30;99.90
40848;DHT22;26570;50.962;5.340;2022-12-07T04:46:15;5.50;99.90
40848;DHT22;26570;50.962;5.340;2022-12-07T04:49:09;5.30;99.90
40848;DHT22;26570;50.962;5.340;2022-12-07T04:52:39;5.30;99.90
40848;DHT22;26570;50.962;5.340;2022-12-07T04:55:57;5.30;99.90
40848;DHT22;26570;50.962;5.340;2022-12-07T04:58:52;5.30;99.90
40848;DHT22;26570;50.962;5.340;2022-12-07T05:02:15;5.20;99.90
40848;DHT22;26570;50.962;5.340;2022-12-07T05:05:10;5.10;99.90
40848;DHT22;26570;50.962;5.340;2022-12-07T05:08:00;5.10;99.90
40848;DHT22;26570;50.962;5.340;2022-12-07T05:11:24;5.00;99.90
40848;DHT22;26570;50.962;5.340;2022-12-07T05:14:42;5.00;99.90
40848;DHT22;26570;50.962;5.340;2022-12-07T05:17:31;4.90;99.90
40848;DHT22;26570;50.962;5.340;2022-12-07T05:20:45;5.10;99.90
40848;DHT22;26570;50.962;5.340;2022-12-07T05:23:59;4.60;99.90
40848;DHT22;26570;50.962;5.340;2022-12-07T05:26:58;4.90;99.90
40848;DHT22;26570;50.962;5.340;2022-12-07T05:29:45;4.20;99.90
40848;DHT22;26570;50.962;5.340;2022-12-07T05:40:13;4.60;99.90
40848;DHT22;26570;50.962;5.340;2022-12-07T05:43:14;4.60;99.90
40848;DHT22;26570;50.962;5.340;2022-12-07T05:46:14;4.60;99.90
40848;DHT22;26570;50.962;5.340;2022-12-07T05:49:12;3.30;99.90
40848;DHT22;26570;50.962;5.340;2022-12-07T05:52:02;4.50;99.90
40848;DHT22;26570;50.962;5.340;2022-12-07T05:55:32;4.50;99.90
40848;DHT22;26570;50.962;5.340;2022-12-07T05:58:47;4.50;99.90
40848;DHT22;26570;50.962;5.340;2022-12-07T06:02:06;4.60;99.90
40848;DHT22;26570;50.962;5.340;2022-12-07T06:05:19;4.50;99.90
40848;DHT22;26570;50.962;5.340;2022-12-07T06:08:29;4.50;99.90
40848;DHT22;26570;50.962;5.340;2022-12-07T06:15:11;4.70;99.90
40848;DHT22;26570;50.962;5.340;2022-12-07T06:18:07;5.00;99.90
40848;DHT22;26570;50.962;5.340;2022-12-07T06:21:03;4.40;99.90
40848;DHT22;26570;50.962;5.340;2022-12-07T06:24:01;5.00;99.90
40848;DHT22;26570;50.962;5.340;2022-12-07T06:27:25;4.90;99.90
40848;DHT22;26570;50.962;5.340;2022-12-07T06:30:23;5.30;99.90
40848;DHT22;26570;50.962;5.340;2022-12-07T06:33:36;4.80;99.90
40848;DHT22;26570;50.962;5.340;2022-12-07T06:36:47;4.90;99.90
40848;DHT22;26570;50.962;5.340;2022-12-07T06:40:00;5.00;99.90
40848;DHT22;26570;50.962;5.340;2022-12-07T06:43:17;5.00;99.90
40848;DHT22;26570;50.962;5.340;2022-12-07T06:46:08;5.10;99.90
40848;DHT22;26570;50.962;5.340;2022-12-07T06:49:27;5.00;99.90
40848;DHT22;26570;50.962;5.340;2022-12-07T06:52:21;6.10;99.90
40848;DHT22;26570;50.962;5.340;2022-12-07T06:55:28;5.10;99.90
40848;DHT22;26570;50.962;5.340;2022-12-07T06:58:51;5.10;99.90
40848;DHT22;26570;50.962;5.340;2022-12-07T07:02:10;5.00;99.90
40848;DHT22;26570;50.962;5.340;2022-12-07T07:05:35;4.90;99.90
40848;DHT22;26570;50.962;5.340;2022-12-07T07:09:00;4.80;99.90
40848;DHT22;26570;50.962;5.340;2022-12-07T07:12:13;4.80;99.90
40848;DHT22;26570;50.962;5.340;2022-12-07T07:15:37;4.90;99.90
40848;DHT22;26570;50.962;5.340;2022-12-07T07:18:35;4.70;99.90
40848;DHT22;26570;50.962;5.340;2022-12-07T07:21:36;4.60;99.90
40848;DHT22;26570;50.962;5.340;2022-12-07T07:24:52;4.50;99.90
40848;DHT22;26570;50.962;5.340;2022-12-07T07:31:42;4.30;99.90
40848;DHT22;26570;50.962;5.340;2022-12-07T07:35:09;3.40;99.90
40848;DHT22;26570;50.962;5.340;2022-12-07T07:38:14;4.10;99.90
40848;DHT22;26570;50.962;5.340;2022-12-07T07:41:31;4.00;99.90
40848;DHT22;26570;50.962;5.340;2022-12-07T07:44:54;3.90;99.90
40848;DHT22;26570;50.962;5.340;2022-12-07T07:47:52;3.90;99.90
40848;DHT22;26570;50.962;5.340;2022-12-07T08:11:34;3.50;99.90
40848;DHT22;26570;50.962;5.340;2022-12-07T08:14:34;3.70;99.90
40848;DHT22;26570;50.962;5.340;2022-12-07T08:21:45;5.00;99.90
40848;DHT22;26570;50.962;5.340;2022-12-07T08:25:17;4.20;99.90
40848;DHT22;26570;50.962;5.340;2022-12-07T08:28:52;4.30;99.90
40848;DHT22;26570;50.962;5.340;2022-12-07T08:32:02;3.50;99.90
40848;DHT22;26570;50.962;5.340;2022-12-07T08:35:22;4.40;99.90
40848;DHT22;26570;50.962;5.340;2022-12-07T08:38:46;5.90;99.90
40848;DHT22;26570;50.962;5.340;2022-12-07T08:41:43;4.90;99.90
40848;DHT22;26570;50.962;5.340;2022-12-07T08:45:25;4.40;99.90
40848;DHT22;26570;50.962;5.340;2022-12-07T09:04:08;5.80;99.90
40848;DHT22;26570;50.962;5.340;2022-12-07T09:07:12;6.00;99.90
40848;DHT22;26570;50.962;5.340;2022-12-07T09:10:26;6.00;99.90
40848;DHT22;26570;50.962;5.340;2022-12-07T09:13:36;6.40;99.90
40848;DHT22;26570;50.962;5.340;2022-12-07T09:16:46;6.40;99.90
40848;DHT22;26570;50.962;5.340;2022-12-07T09:23:11;6.30;99.90
40848;DHT22;26570;50.962;5.340;2022-12-07T09:26:35;6.50;99.90
40848;DHT22;26570;50.962;5.340;2022-12-07T09:29:48;6.70;99.90
40848;DHT22;26570;50.962;5.340;2022-12-07T09:32:45;6.90;99.90
40848;DHT22;26570;50.962;5.340;2022-12-07T09:55:42;7.30;99.90
40848;DHT22;26570;50.962;5.340;2022-12-07T09:59:19;7.60;99.90
40848;DHT22;26570;50.962;5.340;2022-12-07T10:02:34;7.90;99.90
40848;DHT22;26570;50.962;5.340;2022-12-07T10:05:54;7.60;99.90
40848;DHT22;26570;50.962;5.340;2022-12-07T10:09:17;7.60;99.90
40848;DHT22;26570;50.962;5.340;2022-12-07T10:16:00;7.70;99.90
40848;DHT22;26570;50.962;5.340;2022-12-07T10:18:50;7.90;99.90
40848;DHT22;26570;50.962;5.340;2022-12-07T10:22:04;8.00;99.90
40848;DHT22;26570;50.962;5.340;2022-12-07T10:24:53;7.80;99.90
40848;DHT22;26570;50.962;5.340;2022-12-07T10:27:41;7.80;99.90
40848;DHT22;26570;50.962;5.340;2022-12-07T10:30:45;7.70;99.90
40848;DHT22;26570;50.962;5.340;2022-12-07T10:33:48;7.70;99.90
40848;DHT22;26570;50.962;5.340;2022-12-07T10:36:40;7.70;99.90
40848;DHT22;26570;50.962;5.340;2022-12-07T10:39:55;7.50;99.90
40848;DHT22;26570;50.962;5.340;2022-12-07T10:43:26;7.70;99.90
40848;DHT22;26570;50.962;5.340;2022-12-07T10:46:44;7.50;99.90
40848;DHT22;26570;50.962;5.340;2022-12-07T10:59:17;7.60;99.90
40848;DHT22;26570;50.962;5.340;2022-12-07T11:19:00;7.20;99.90
40848;DHT22;26570;50.962;5.340;2022-12-07T11:22:26;7.50;99.90
40848;DHT22;26570;50.962;5.340;2022-12-07T11:25:29;7.70;99.90
40848;DHT22;26570;50.962;5.340;2022-12-07T11:31:38;7.90;99.90
40848;DHT22;26570;50.962;5.340;2022-12-07T11:38:26;7.90;99.90
40848;DHT22;26570;50.962;5.340;2022-12-07T11:41:22;8.00;99.90
40848;DHT22;26570;50.962;5.340;2022-12-07T11:44:33;7.90;99.90
40848;DHT22;26570;50.962;5.340;2022-12-07T11:50:26;8.20;99.90
40848;DHT22;26570;50.962;5.340;2022-12-07T11:53:57;8.40;99.90
40848;DHT22;26570;50.962;5.340;2022-12-07T11:56:49;8.40;99.90
40848;DHT22;26570;50.962;5.340;2022-12-07T12:00:04;8.30;99.90
40848;DHT22;26570;50.962;5.340;2022-12-07T12:03:32;8.70;99.90
40848;DHT22;26570;50.962;5.340;2022-12-07T12:06:45;9.40;99.90
40848;DHT22;26570;50.962;5.340;2022-12-07T12:10:05;9.10;99.90
40848;DHT22;26570;50.962;5.340;2022-12-07T12:20:20;8.20;99.90
40848;DHT22;26570;50.962;5.340;2022-12-07T12:23:21;8.10;99.90
40848;DHT22;26570;50.962;5.340;2022-12-07T12:26:25;8.00;99.90
40848;DHT22;26570;50.962;5.340;2022-12-07T12:29:39;8.20;99.90
40848;DHT22;26570;50.962;5.340;2022-12-07T12:32:39;8.30;99.90
40848;DHT22;26570;50.962;5.340;2022-12-07T12:39:13;8.10;99.90
40848;DHT22;26570;50.962;5.340;2022-12-07T12:42:01;8.50;99.90
40848;DHT22;26570;50.962;5.340;2022-12-07T12:45:17;8.60;99.90
40848;DHT22;26570;50.962;5.340;2022-12-07T12:48:32;8.30;99.90
40848;DHT22;26570;50.962;5.340;2022-12-07T12:51:46;8.30;99.90
40848;DHT22;26570;50.962;5.340;2022-12-07T12:54:36;8.30;99.90
40848;DHT22;26570;50.962;5.340;2022-12-07T12:57:32;8.30;99.90
40848;DHT22;26570;50.962;5.340;2022-12-07T13:01:31;8.60;99.90
40848;DHT22;26570;50.962;5.340;2022-12-07T13:03:56;8.60;99.90
40848;DHT22;26570;50.962;5.340;2022-12-07T13:10:44;9.30;99.90
40848;DHT22;26570;50.962;5.340;2022-12-07T13:13:33;8.60;99.90
40848;DHT22;26570;50.962;5.340;2022-12-07T13:17:01;8.40;99.90
40848;DHT22;26570;50.962;5.340;2022-12-07T13:23:03;8.10;99.90
40848;DHT22;26570;50.962;5.340;2022-12-07T13:29:12;7.90;99.90
40848;DHT22;26570;50.962;5.340;2022-12-07T13:32:01;8.20;99.90
40848;DHT22;26570;50.962;5.340;2022-12-07T13:34:51;8.20;99.90
40848;DHT22;26570;50.962;5.340;2022-12-07T13:37:41;8.00;99.90
40848;DHT22;26570;50.962;5.340;2022-12-07T13:40:31;8.10;99.90
40848;DHT22;26570;50.962;5.340;2022-12-07T13:43:30;7.90;99.90
40848;DHT22;26570;50.962;5.340;2022-12-07T13:50:31;8.00;99.90
40848;DHT22;26570;50.962;5.340;2022-12-07T13:53:21;8.50;99.90
40848;DHT22;26570;50.962;5.340;2022-12-07T13:56:42;8.50;99.90
40848;DHT22;26570;50.962;5.340;2022-12-07T13:59:34;8.20;99.90
40848;DHT22;26570;50.962;5.340;2022-12-07T14:13:32;8.30;99.90
40848;DHT22;26570;50.962;5.340;2022-12-07T14:16:22;8.40;99.90
40848;DHT22;26570;50.962;5.340;2022-12-07T14:22:59;8.50;99.90
40848;DHT22;26570;50.962;5.340;2022-12-07T14:26:18;8.40;99.90
40848;DHT22;26570;50.962;5.340;2022-12-07T14:29:38;8.40;99.90
40848;DHT22;26570;50.962;5.340;2022-12-07T14:32:28;8.50;99.90
40848;DHT22;26570;50.962;5.340;2022-12-07T14:35:56;8.40;99.90
40848;DHT22;26570;50.962;5.340;2022-12-07T14:39:09;8.20;99.90
40848;DHT22;26570;50.962;5.340;2022-12-07T14:42:45;7.70;99.90
40848;DHT22;26570;50.962;5.340;2022-12-07T14:49:27;8.10;99.90
40848;DHT22;26570;50.962;5.340;2022-12-07T14:52:29;8.10;99.90
40848;DHT22;26570;50.962;5.340;2022-12-07T14:55:48;8.00;99.90
40848;DHT22;26570;50.962;5.340;2022-12-07T14:59:16;8.10;99.90
40848;DHT22;26570;50.962;5.340;2022-12-07T15:02:23;7.40;99.90
40848;DHT22;26570;50.962;5.340;2022-12-07T15:05:49;8.20;99.90
40848;DHT22;26570;50.962;5.340;2022-12-07T15:09:31;8.10;99.90
40848;DHT22;26570;50.962;5.340;2022-12-07T15:12:59;8.00;99.90
40848;DHT22;26570;50.962;5.340;2022-12-07T15:16:32;7.80;99.90
40848;DHT22;26570;50.962;5.340;2022-12-07T15:19:22;7.80;99.90
40848;DHT22;26570;50.962;5.340;2022-12-07T15:26:02;7.80;99.90
40848;DHT22;26570;50.962;5.340;2022-12-07T15:29:02;8.50;99.90
40848;DHT22;26570;50.962;5.340;2022-12-07T15:32:16;7.60;99.90
40848;DHT22;26570;50.962;5.340;2022-12-07T15:35:05;6.70;99.90
40848;DHT22;26570;50.962;5.340;2022-12-07T15:38:10;6.70;99.90
40848;DHT22;26570;50.962;5.340;2022-12-07T15:57:18;7.30;99.90
40848;DHT22;26570;50.962;5.340;2022-12-07T16:00:33;7.20;99.90
40848;DHT22;26570;50.962;5.340;2022-12-07T16:03:54;7.10;99.90
40848;DHT22;26570;50.962;5.340;2022-12-07T16:07:10;7.20;99.90
40848;DHT22;26570;50.962;5.340;2022-12-07T16:10:59;7.10;99.90
40848;DHT22;26570;50.962;5.340;2022-12-07T16:14:31;7.10;99.90
40848;DHT22;26570;50.962;5.340;2022-12-07T16:18:11;7.00;99.90
40848;DHT22;26570;50.962;5.340;2022-12-07T16:21:42;7.00;99.90
40848;DHT22;26570;50.962;5.340;2022-12-07T16:28:08;7.00;99.90
40848;DHT22;26570;50.962;5.340;2022-12-07T16:31:29;6.90;99.90
40848;DHT22;26570;50.962;5.340;2022-12-07T16:34:27;7.00;99.90
40848;DHT22;26570;50.962;5.340;2022-12-07T16:37:33;7.10;99.90
40848;DHT22;26570;50.962;5.340;2022-12-07T16:40:49;7.70;99.90
40848;DHT22;26570;50.962;5.340;2022-12-07T16:43:46;6.90;99.90
40848;DHT22;26570;50.962;5.340;2022-12-07T16:47:42;6.40;99.90
40848;DHT22;26570;50.962;5.340;2022-12-07T16:51:29;6.70;99.90
40848;DHT22;26570;50.962;5.340;2022-12-07T16:55:07;6.30;99.90
40848;DHT22;26570;50.962;5.340;2022-12-07T16:58:54;6.60;99.90
40848;DHT22;26570;50.962;5.340;2022-12-07T17:02:23;6.50;99.90
40848;DHT22;26570;50.962;5.340;2022-12-07T17:05:18;6.40;99.90
40848;DHT22;26570;50.962;5.340;2022-12-07T17:09:00;6.30;99.90
40848;DHT22;26570;50.962;5.340;2022-12-07T17:12:31;5.80;99.90
40848;DHT22;26570;50.962;5.340;2022-12-07T17:16:13;6.30;99.90
40848;DHT22;26570;50.962;5.340;2022-12-07T17:19:34;6.30;99.90
40848;DHT22;26570;50.962;5.340;2022-12-07T17:23:08;6.20;99.90
40848;DHT22;26570;50.962;5.340;2022-12-07T17:26:54;6.90;99.90
40848;DHT22;26570;50.962;5.340;2022-12-07T17:29:47;6.30;99.90
40848;DHT22;26570;50.962;5.340;2022-12-07T17:32:59;6.20;99.90
40848;DHT22;26570;50.962;5.340;2022-12-07T17:36:03;6.30;99.90
40848;DHT22;26570;50.962;5.340;2022-12-07T17:49:41;6.20;99.90
40848;DHT22;26570;50.962;5.340;2022-12-07T17:52:42;6.10;99.90
40848;DHT22;26570;50.962;5.340;2022-12-07T17:56:14;6.30;99.90
40848;DHT22;26570;50.962;5.340;2022-12-07T17:59:17;6.20;99.90
40848;DHT22;26570;50.962;5.340;2022-12-07T18:02:19;6.20;99.90
40848;DHT22;26570;50.962;5.340;2022-12-07T18:05:58;6.10;99.90
40848;DHT22;26570;50.962;5.340;2022-12-07T18:09:16;6.10;99.90
40848;DHT22;26570;50.962;5.340;2022-12-07T18:16:28;6.10;99.90
40848;DHT22;26570;50.962;5.340;2022-12-07T18:23:34;6.40;99.90
40848;DHT22;26570;50.962;5.340;2022-12-07T18:27:00;6.20;99.90
40848;DHT22;26570;50.962;5.340;2022-12-07T18:37:54;6.20;99.90
40848;DHT22;26570;50.962;5.340;2022-12-07T18:41:23;5.20;99.90
40848;DHT22;26570;50.962;5.340;2022-12-07T18:45:07;6.90;99.90
40848;DHT22;26570;50.962;5.340;2022-12-07T18:48:11;6.20;99.90
40848;DHT22;26570;50.962;5.340;2022-12-07T18:51:49;7.20;99.90
40848;DHT22;26570;50.962;5.340;2022-12-07T18:59:06;6.10;99.90
40848;DHT22;26570;50.962;5.340;2022-12-07T19:13:17;6.10;99.90
40848;DHT22;26570;50.962;5.340;2022-12-07T19:17:12;6.10;99.90
40848;DHT22;26570;50.962;5.340;2022-12-07T19:20:36;6.00;99.90
40848;DHT22;26570;50.962;5.340;2022-12-07T19:23:51;6.00;99.90
40848;DHT22;26570;50.962;5.340;2022-12-07T19:31:04;6.10;99.90
40848;DHT22;26570;50.962;5.340;2022-12-07T19:37:49;6.00;99.90
40848;DHT22;26570;50.962;5.340;2022-12-07T19:41:25;5.90;99.90
40848;DHT22;26570;50.962;5.340;2022-12-07T19:44:38;6.00;99.90
40848;DHT22;26570;50.962;5.340;2022-12-07T19:47:58;6.00;99.90
40848;DHT22;26570;50.962;5.340;2022-12-07T19:59:01;6.10;99.90
40848;DHT22;26570;50.962;5.340;2022-12-07T20:02:41;6.00;99.90
40848;DHT22;26570;50.962;5.340;2022-12-07T20:06:27;6.00;99.90
40848;DHT22;26570;50.962;5.340;2022-12-07T20:13:54;5.90;99.90
40848;DHT22;26570;50.962;5.340;2022-12-07T20:16:57;6.00;99.90
40848;DHT22;26570;50.962;5.340;2022-12-07T20:20:34;5.90;99.90
40848;DHT22;26570;50.962;5.340;2022-12-07T20:27:51;6.10;99.90
40848;DHT22;26570;50.962;5.340;2022-12-07T20:31:27;5.90;99.90
40848;DHT22;26570;50.962;5.340;2022-12-07T20:34:42;5.90;99.90
40848;DHT22;26570;50.962;5.340;2022-12-07T20:38:13;5.90;99.90
40848;DHT22;26570;50.962;5.340;2022-12-07T20:44:58;6.00;99.90
40848;DHT22;26570;50.962;5.340;2022-12-07T20:48:43;6.00;99.90
40848;DHT22;26570;50.962;5.340;2022-12-07T20:52:07;5.80;99.90
40848;DHT22;26570;50.962;5.340;2022-12-07T20:55:16;5.90;99.90
40848;DHT22;26570;50.962;5.340;2022-12-07T20:58:39;5.30;99.90
40848;DHT22;26570;50.962;5.340;2022-12-07T21:05:13;6.00;99.90
40848;DHT22;26570;50.962;5.340;2022-12-07T21:08:51;5.90;99.90
40848;DHT22;26570;50.962;5.340;2022-12-07T21:12:28;6.10;99.90
40848;DHT22;26570;50.962;5.340;2022-12-07T21:15:48;6.10;99.90
40848;DHT22;26570;50.962;5.340;2022-12-07T21:19:15;5.90;99.90
40848;DHT22;26570;50.962;5.340;2022-12-07T21:23:18;5.90;99.90
40848;DHT22;26570;50.962;5.340;2022-12-07T21:26:59;5.70;99.90
40848;DHT22;26570;50.962;5.340;2022-12-07T21:30:12;5.60;99.90
40848;DHT22;26570;50.962;5.340;2022-12-07T21:33:41;5.60;99.90
40848;DHT22;26570;50.962;5.340;2022-12-07T21:37:08;5.70;99.90
40848;DHT22;26570;50.962;5.340;2022-12-07T21:40:42;5.70;99.90
40848;DHT22;26570;50.962;5.340;2022-12-07T21:44:13;5.50;99.90
40848;DHT22;26570;50.962;5.340;2022-12-07T21:47:31;5.60;99.90
40848;DHT22;26570;50.962;5.340;2022-12-07T21:54:34;5.70;99.90
40848;DHT22;26570;50.962;5.340;2022-12-07T21:57:54;5.60;99.90
40848;DHT22;26570;50.962;5.340;2022-12-07T22:01:36;5.70;99.90
40848;DHT22;26570;50.962;5.340;2022-12-07T22:04:57;6.00;99.90
40848;DHT22;26570;50.962;5.340;2022-12-07T22:08:07;5.70;99.90
40848;DHT22;26570;50.962;5.340;2022-12-07T22:11:36;5.60;99.90
40848;DHT22;26570;50.962;5.340;2022-12-07T22:15:02;5.10;99.90
40848;DHT22;26570;50.962;5.340;2022-12-07T22:18:59;5.50;99.90
40848;DHT22;26570;50.962;5.340;2022-12-07T22:22:17;5.60;99.90
40848;DHT22;26570;50.962;5.340;2022-12-07T22:29:16;5.50;99.90
40848;DHT22;26570;50.962;5.340;2022-12-07T22:36:23;4.60;99.90
40848;DHT22;26570;50.962;5.340;2022-12-07T22:43:04;5.70;99.90
40848;DHT22;26570;50.962;5.340;2022-12-07T22:49:09;5.80;99.90
40848;DHT22;26570;50.962;5.340;2022-12-07T22:56:25;5.80;99.90
40848;DHT22;26570;50.962;5.340;2022-12-07T22:59:53;5.90;99.90
